sensor_id;sensor_type;location;lat;lon;timestamp;P1;durP1;ratioP1;P2;durP2;ratioP2
15385;SDS011;7791;47.246;9.648;2023-07-31T00:01:31;7.00;;;2.20;;
15385;SDS011;7791;47.246;9.648;2023-07-31T00:04:16;3.80;;;1.67;;
15385;SDS011;7791;47.246;9.648;2023-07-31T00:06:52;5.80;;;1.80;;
15385;SDS011;7791;47.246;9.648;2023-07-31T00:09:30;4.43;;;2.10;;
15385;SDS011;7791;47.246;9.648;2023-07-31T00:12:03;4.10;;;1.80;;
15385;SDS011;7791;47.246;9.648;2023-07-31T00:14:30;4.63;;;2.17;;
15385;SDS011;7791;47.246;9.648;2023-07-31T00:16:55;3.53;;;1.90;;
15385;SDS011;7791;47.246;9.648;2023-07-31T00:19:21;4.03;;;1.80;;
15385;SDS011;7791;47.246;9.648;2023-07-31T00:21:55;3.70;;;2.20;;
15385;SDS011;7791;47.246;9.648;2023-07-31T00:24:43;3.43;;;1.80;;
15385;SDS011;7791;47.246;9.648;2023-07-31T00:27:13;4.67;;;2.00;;
15385;SDS011;7791;47.246;9.648;2023-07-31T00:29:48;3.73;;;2.00;;
15385;SDS011;7791;47.246;9.648;2023-07-31T00:32:27;3.70;;;1.97;;
15385;SDS011;7791;47.246;9.648;2023-07-31T00:34:59;3.97;;;2.17;;
15385;SDS011;7791;47.246;9.648;2023-07-31T00:37:45;3.23;;;2.13;;
15385;SDS011;7791;47.246;9.648;2023-07-31T00:40:37;5.17;;;2.27;;
15385;SDS011;7791;47.246;9.648;2023-07-31T00:43:12;4.10;;;2.17;;
15385;SDS011;7791;47.246;9.648;2023-07-31T00:46:11;5.57;;;2.30;;
15385;SDS011;7791;47.246;9.648;2023-07-31T00:48:44;4.60;;;2.13;;
15385;SDS011;7791;47.246;9.648;2023-07-31T00:51:23;3.50;;;1.93;;
15385;SDS011;7791;47.246;9.648;2023-07-31T00:54:20;5.97;;;2.57;;
15385;SDS011;7791;47.246;9.648;2023-07-31T00:57:02;5.93;;;2.50;;
15385;SDS011;7791;47.246;9.648;2023-07-31T00:59:43;3.87;;;2.60;;
15385;SDS011;7791;47.246;9.648;2023-07-31T01:02:13;4.40;;;2.33;;
15385;SDS011;7791;47.246;9.648;2023-07-31T01:04:59;4.77;;;2.53;;
15385;SDS011;7791;47.246;9.648;2023-07-31T01:07:42;3.07;;;2.20;;
15385;SDS011;7791;47.246;9.648;2023-07-31T01:10:34;3.00;;;2.13;;
15385;SDS011;7791;47.246;9.648;2023-07-31T01:13:16;6.27;;;2.70;;
15385;SDS011;7791;47.246;9.648;2023-07-31T01:16:09;3.80;;;1.97;;
15385;SDS011;7791;47.246;9.648;2023-07-31T01:18:48;5.03;;;1.90;;
15385;SDS011;7791;47.246;9.648;2023-07-31T01:21:46;9.67;;;3.80;;
15385;SDS011;7791;47.246;9.648;2023-07-31T01:24:50;4.63;;;2.20;;
15385;SDS011;7791;47.246;9.648;2023-07-31T01:27:40;6.13;;;2.50;;
15385;SDS011;7791;47.246;9.648;2023-07-31T01:30:24;5.63;;;2.40;;
15385;SDS011;7791;47.246;9.648;2023-07-31T01:33:06;3.97;;;2.13;;
15385;SDS011;7791;47.246;9.648;2023-07-31T01:35:51;6.93;;;2.60;;
15385;SDS011;7791;47.246;9.648;2023-07-31T01:38:31;3.47;;;2.00;;
15385;SDS011;7791;47.246;9.648;2023-07-31T01:41:08;6.83;;;2.43;;
15385;SDS011;7791;47.246;9.648;2023-07-31T01:43:54;5.77;;;2.17;;
15385;SDS011;7791;47.246;9.648;2023-07-31T01:46:30;5.87;;;2.30;;
15385;SDS011;7791;47.246;9.648;2023-07-31T01:49:18;3.57;;;2.53;;
15385;SDS011;7791;47.246;9.648;2023-07-31T01:51:53;2.67;;;1.87;;
15385;SDS011;7791;47.246;9.648;2023-07-31T01:54:41;5.03;;;2.37;;
15385;SDS011;7791;47.246;9.648;2023-07-31T01:57:14;4.70;;;2.10;;
15385;SDS011;7791;47.246;9.648;2023-07-31T02:02:45;6.00;;;2.20;;
15385;SDS011;7791;47.246;9.648;2023-07-31T02:05:24;5.37;;;2.40;;
15385;SDS011;7791;47.246;9.648;2023-07-31T02:08:09;5.03;;;2.30;;
15385;SDS011;7791;47.246;9.648;2023-07-31T02:13:34;5.47;;;2.40;;
15385;SDS011;7791;47.246;9.648;2023-07-31T02:16:12;8.37;;;2.50;;
15385;SDS011;7791;47.246;9.648;2023-07-31T02:18:54;4.10;;;2.43;;
15385;SDS011;7791;47.246;9.648;2023-07-31T02:21:26;6.60;;;2.67;;
15385;SDS011;7791;47.246;9.648;2023-07-31T02:24:13;3.77;;;2.40;;
15385;SDS011;7791;47.246;9.648;2023-07-31T02:27:00;3.70;;;2.50;;
15385;SDS011;7791;47.246;9.648;2023-07-31T02:29:33;4.93;;;2.70;;
15385;SDS011;7791;47.246;9.648;2023-07-31T02:32:08;6.83;;;2.97;;
15385;SDS011;7791;47.246;9.648;2023-07-31T02:37:31;3.73;;;2.47;;
15385;SDS011;7791;47.246;9.648;2023-07-31T02:40:06;6.93;;;2.93;;
15385;SDS011;7791;47.246;9.648;2023-07-31T02:42:34;5.23;;;2.70;;
15385;SDS011;7791;47.246;9.648;2023-07-31T02:45:05;4.90;;;2.70;;
15385;SDS011;7791;47.246;9.648;2023-07-31T02:47:36;6.70;;;2.70;;
15385;SDS011;7791;47.246;9.648;2023-07-31T02:50:24;6.07;;;2.77;;
15385;SDS011;7791;47.246;9.648;2023-07-31T02:53:00;4.70;;;2.70;;
15385;SDS011;7791;47.246;9.648;2023-07-31T02:58:35;8.30;;;2.90;;
15385;SDS011;7791;47.246;9.648;2023-07-31T03:01:14;7.93;;;2.93;;
15385;SDS011;7791;47.246;9.648;2023-07-31T03:06:54;5.33;;;3.43;;
15385;SDS011;7791;47.246;9.648;2023-07-31T03:09:26;8.03;;;3.10;;
15385;SDS011;7791;47.246;9.648;2023-07-31T03:12:11;4.30;;;2.67;;
15385;SDS011;7791;47.246;9.648;2023-07-31T03:14:52;5.07;;;2.83;;
15385;SDS011;7791;47.246;9.648;2023-07-31T03:17:46;11.13;;;3.67;;
15385;SDS011;7791;47.246;9.648;2023-07-31T03:20:18;4.50;;;2.80;;
15385;SDS011;7791;47.246;9.648;2023-07-31T03:22:51;6.47;;;3.03;;
15385;SDS011;7791;47.246;9.648;2023-07-31T03:25:23;6.00;;;2.70;;
15385;SDS011;7791;47.246;9.648;2023-07-31T03:27:52;6.43;;;3.07;;
15385;SDS011;7791;47.246;9.648;2023-07-31T03:30:31;6.83;;;2.90;;
15385;SDS011;7791;47.246;9.648;2023-07-31T03:33:19;7.77;;;2.87;;
15385;SDS011;7791;47.246;9.648;2023-07-31T03:35:56;10.87;;;2.43;;
15385;SDS011;7791;47.246;9.648;2023-07-31T03:38:48;3.97;;;2.40;;
15385;SDS011;7791;47.246;9.648;2023-07-31T03:41:23;7.57;;;3.33;;
15385;SDS011;7791;47.246;9.648;2023-07-31T03:43:58;6.47;;;2.93;;
15385;SDS011;7791;47.246;9.648;2023-07-31T03:46:35;5.57;;;2.50;;
15385;SDS011;7791;47.246;9.648;2023-07-31T03:49:32;4.33;;;2.60;;
15385;SDS011;7791;47.246;9.648;2023-07-31T03:52:12;4.50;;;2.50;;
15385;SDS011;7791;47.246;9.648;2023-07-31T03:54:55;5.03;;;2.87;;
15385;SDS011;7791;47.246;9.648;2023-07-31T03:57:34;4.97;;;2.97;;
15385;SDS011;7791;47.246;9.648;2023-07-31T04:00:04;4.93;;;2.77;;
15385;SDS011;7791;47.246;9.648;2023-07-31T04:02:42;5.87;;;2.77;;
15385;SDS011;7791;47.246;9.648;2023-07-31T04:05:23;5.87;;;3.27;;
15385;SDS011;7791;47.246;9.648;2023-07-31T04:08:18;7.07;;;2.70;;
15385;SDS011;7791;47.246;9.648;2023-07-31T04:10:57;3.83;;;2.73;;
15385;SDS011;7791;47.246;9.648;2023-07-31T04:13:30;6.77;;;3.53;;
15385;SDS011;7791;47.246;9.648;2023-07-31T04:16:01;8.87;;;2.83;;
15385;SDS011;7791;47.246;9.648;2023-07-31T04:18:37;6.70;;;3.23;;
15385;SDS011;7791;47.246;9.648;2023-07-31T04:21:13;5.90;;;3.10;;
15385;SDS011;7791;47.246;9.648;2023-07-31T04:23:47;5.93;;;3.00;;
15385;SDS011;7791;47.246;9.648;2023-07-31T04:26:22;4.57;;;3.00;;
15385;SDS011;7791;47.246;9.648;2023-07-31T04:29:06;5.37;;;2.80;;
15385;SDS011;7791;47.246;9.648;2023-07-31T04:31:39;7.07;;;3.23;;
15385;SDS011;7791;47.246;9.648;2023-07-31T04:34:17;8.37;;;3.70;;
15385;SDS011;7791;47.246;9.648;2023-07-31T04:36:47;8.37;;;4.00;;
15385;SDS011;7791;47.246;9.648;2023-07-31T04:39:27;5.07;;;3.73;;
15385;SDS011;7791;47.246;9.648;2023-07-31T04:42:14;5.83;;;3.10;;
15385;SDS011;7791;47.246;9.648;2023-07-31T04:45:12;3.83;;;3.00;;
15385;SDS011;7791;47.246;9.648;2023-07-31T04:47:49;7.13;;;3.10;;
15385;SDS011;7791;47.246;9.648;2023-07-31T04:50:26;5.07;;;3.40;;
15385;SDS011;7791;47.246;9.648;2023-07-31T04:53:02;6.03;;;3.43;;
15385;SDS011;7791;47.246;9.648;2023-07-31T04:55:36;5.80;;;3.37;;
15385;SDS011;7791;47.246;9.648;2023-07-31T04:58:21;8.73;;;4.00;;
15385;SDS011;7791;47.246;9.648;2023-07-31T05:03:54;5.80;;;3.33;;
15385;SDS011;7791;47.246;9.648;2023-07-31T05:06:27;7.07;;;3.57;;
15385;SDS011;7791;47.246;9.648;2023-07-31T05:12:09;5.57;;;3.33;;
15385;SDS011;7791;47.246;9.648;2023-07-31T05:14:43;4.50;;;3.20;;
15385;SDS011;7791;47.246;9.648;2023-07-31T05:17:24;9.13;;;3.53;;
15385;SDS011;7791;47.246;9.648;2023-07-31T05:20:26;5.70;;;3.40;;
15385;SDS011;7791;47.246;9.648;2023-07-31T05:23:10;4.80;;;3.47;;
15385;SDS011;7791;47.246;9.648;2023-07-31T05:25:52;4.60;;;2.60;;
15385;SDS011;7791;47.246;9.648;2023-07-31T05:31:26;4.93;;;2.50;;
15385;SDS011;7791;47.246;9.648;2023-07-31T05:33:59;4.63;;;2.67;;
15385;SDS011;7791;47.246;9.648;2023-07-31T05:36:43;3.77;;;2.37;;
15385;SDS011;7791;47.246;9.648;2023-07-31T05:39:15;6.10;;;2.50;;
15385;SDS011;7791;47.246;9.648;2023-07-31T05:41:57;4.70;;;2.70;;
15385;SDS011;7791;47.246;9.648;2023-07-31T05:44:51;4.23;;;2.50;;
15385;SDS011;7791;47.246;9.648;2023-07-31T05:47:36;3.13;;;2.33;;
15385;SDS011;7791;47.246;9.648;2023-07-31T05:53:16;3.00;;;2.10;;
15385;SDS011;7791;47.246;9.648;2023-07-31T05:55:58;3.27;;;2.30;;
15385;SDS011;7791;47.246;9.648;2023-07-31T05:58:32;5.50;;;2.73;;
15385;SDS011;7791;47.246;9.648;2023-07-31T06:01:04;6.43;;;2.80;;
15385;SDS011;7791;47.246;9.648;2023-07-31T06:03:43;6.20;;;2.83;;
15385;SDS011;7791;47.246;9.648;2023-07-31T06:06:24;5.80;;;2.67;;
15385;SDS011;7791;47.246;9.648;2023-07-31T06:09:01;3.50;;;2.40;;
15385;SDS011;7791;47.246;9.648;2023-07-31T06:11:36;5.60;;;2.40;;
15385;SDS011;7791;47.246;9.648;2023-07-31T06:14:15;5.70;;;2.17;;
15385;SDS011;7791;47.246;9.648;2023-07-31T06:16:53;4.53;;;2.20;;
15385;SDS011;7791;47.246;9.648;2023-07-31T06:22:26;7.50;;;2.13;;
15385;SDS011;7791;47.246;9.648;2023-07-31T06:25:03;3.83;;;2.00;;
15385;SDS011;7791;47.246;9.648;2023-07-31T06:27:45;2.37;;;1.73;;
15385;SDS011;7791;47.246;9.648;2023-07-31T06:30:27;4.93;;;1.90;;
15385;SDS011;7791;47.246;9.648;2023-07-31T06:32:57;4.83;;;1.77;;
15385;SDS011;7791;47.246;9.648;2023-07-31T06:35:39;2.53;;;1.67;;
15385;SDS011;7791;47.246;9.648;2023-07-31T06:38:12;2.73;;;2.00;;
15385;SDS011;7791;47.246;9.648;2023-07-31T06:40:52;2.40;;;1.80;;
15385;SDS011;7791;47.246;9.648;2023-07-31T06:46:39;4.50;;;1.40;;
15385;SDS011;7791;47.246;9.648;2023-07-31T06:49:17;5.90;;;1.87;;
15385;SDS011;7791;47.246;9.648;2023-07-31T06:52:06;3.30;;;1.80;;
15385;SDS011;7791;47.246;9.648;2023-07-31T06:54:37;4.23;;;2.30;;
15385;SDS011;7791;47.246;9.648;2023-07-31T06:57:06;2.03;;;1.70;;
15385;SDS011;7791;47.246;9.648;2023-07-31T06:59:49;3.87;;;1.90;;
15385;SDS011;7791;47.246;9.648;2023-07-31T07:02:41;2.70;;;1.73;;
15385;SDS011;7791;47.246;9.648;2023-07-31T07:05:22;3.27;;;1.53;;
15385;SDS011;7791;47.246;9.648;2023-07-31T07:13:50;6.50;;;2.47;;
15385;SDS011;7791;47.246;9.648;2023-07-31T07:19:41;3.60;;;2.10;;
15385;SDS011;7791;47.246;9.648;2023-07-31T07:22:34;3.58;;;2.08;;
15385;SDS011;7791;47.246;9.648;2023-07-31T07:25:20;2.88;;;1.95;;
15385;SDS011;7791;47.246;9.648;2023-07-31T07:27:58;1.63;;;1.50;;
15385;SDS011;7791;47.246;9.648;2023-07-31T07:30:37;3.45;;;2.40;;
15385;SDS011;7791;47.246;9.648;2023-07-31T07:33:10;5.05;;;2.47;;
15385;SDS011;7791;47.246;9.648;2023-07-31T07:35:36;4.78;;;1.85;;
15385;SDS011;7791;47.246;9.648;2023-07-31T07:38:04;5.55;;;2.60;;
15385;SDS011;7791;47.246;9.648;2023-07-31T07:40:39;4.18;;;2.15;;
15385;SDS011;7791;47.246;9.648;2023-07-31T07:43:04;3.50;;;2.08;;
15385;SDS011;7791;47.246;9.648;2023-07-31T07:45:35;2.58;;;1.80;;
15385;SDS011;7791;47.246;9.648;2023-07-31T07:48:29;4.90;;;2.00;;
15385;SDS011;7791;47.246;9.648;2023-07-31T07:51:08;3.80;;;1.90;;
15385;SDS011;7791;47.246;9.648;2023-07-31T07:53:53;4.10;;;1.80;;
15385;SDS011;7791;47.246;9.648;2023-07-31T07:56:38;1.83;;;1.45;;
15385;SDS011;7791;47.246;9.648;2023-07-31T07:59:16;3.28;;;1.70;;
15385;SDS011;7791;47.246;9.648;2023-07-31T08:02:03;2.55;;;1.90;;
15385;SDS011;7791;47.246;9.648;2023-07-31T08:04:39;2.85;;;1.73;;
15385;SDS011;7791;47.246;9.648;2023-07-31T08:07:18;3.45;;;1.50;;
15385;SDS011;7791;47.246;9.648;2023-07-31T08:12:48;4.07;;;1.58;;
15385;SDS011;7791;47.246;9.648;2023-07-31T08:15:43;3.63;;;1.50;;
15385;SDS011;7791;47.246;9.648;2023-07-31T08:18:26;3.60;;;1.70;;
15385;SDS011;7791;47.246;9.648;2023-07-31T08:21:02;1.83;;;1.30;;
15385;SDS011;7791;47.246;9.648;2023-07-31T08:23:47;5.93;;;1.73;;
15385;SDS011;7791;47.246;9.648;2023-07-31T08:26:36;4.68;;;1.90;;
15385;SDS011;7791;47.246;9.648;2023-07-31T08:34:50;5.07;;;1.48;;
15385;SDS011;7791;47.246;9.648;2023-07-31T08:37:42;2.20;;;1.58;;
15385;SDS011;7791;47.246;9.648;2023-07-31T08:40:25;3.25;;;1.70;;
15385;SDS011;7791;47.246;9.648;2023-07-31T08:42:54;2.67;;;1.55;;
15385;SDS011;7791;47.246;9.648;2023-07-31T08:48:38;2.20;;;1.80;;
15385;SDS011;7791;47.246;9.648;2023-07-31T08:51:18;3.92;;;1.90;;
15385;SDS011;7791;47.246;9.648;2023-07-31T08:54:11;4.03;;;2.00;;
15385;SDS011;7791;47.246;9.648;2023-07-31T08:56:54;2.30;;;1.77;;
15385;SDS011;7791;47.246;9.648;2023-07-31T08:59:39;4.00;;;2.00;;
15385;SDS011;7791;47.246;9.648;2023-07-31T09:02:18;2.53;;;2.00;;
15385;SDS011;7791;47.246;9.648;2023-07-31T09:04:52;2.72;;;1.88;;
15385;SDS011;7791;47.246;9.648;2023-07-31T09:10:33;2.70;;;2.05;;
15385;SDS011;7791;47.246;9.648;2023-07-31T09:13:14;4.20;;;2.00;;
15385;SDS011;7791;47.246;9.648;2023-07-31T09:15:54;7.40;;;2.97;;
15385;SDS011;7791;47.246;9.648;2023-07-31T09:27:06;4.75;;;2.22;;
15385;SDS011;7791;47.246;9.648;2023-07-31T09:32:30;4.45;;;2.28;;
15385;SDS011;7791;47.246;9.648;2023-07-31T09:38:09;3.33;;;2.00;;
15385;SDS011;7791;47.246;9.648;2023-07-31T09:41:11;4.15;;;1.75;;
15385;SDS011;7791;47.246;9.648;2023-07-31T09:44:50;5.55;;;2.13;;
15385;SDS011;7791;47.246;9.648;2023-07-31T09:47:14;4.30;;;1.63;;
15385;SDS011;7791;47.246;9.648;2023-07-31T09:50:05;2.30;;;1.65;;
15385;SDS011;7791;47.246;9.648;2023-07-31T09:52:57;4.65;;;2.17;;
15385;SDS011;7791;47.246;9.648;2023-07-31T09:55:40;2.95;;;1.95;;
15385;SDS011;7791;47.246;9.648;2023-07-31T09:58:26;4.25;;;2.15;;
15385;SDS011;7791;47.246;9.648;2023-07-31T10:01:04;4.03;;;2.03;;
15385;SDS011;7791;47.246;9.648;2023-07-31T10:03:33;4.38;;;1.90;;
15385;SDS011;7791;47.246;9.648;2023-07-31T10:06:07;3.83;;;1.95;;
15385;SDS011;7791;47.246;9.648;2023-07-31T10:08:56;3.58;;;1.98;;
15385;SDS011;7791;47.246;9.648;2023-07-31T10:11:41;3.83;;;2.13;;
15385;SDS011;7791;47.246;9.648;2023-07-31T10:14:23;4.20;;;2.25;;
15385;SDS011;7791;47.246;9.648;2023-07-31T10:17:21;3.17;;;2.10;;
15385;SDS011;7791;47.246;9.648;2023-07-31T10:20:07;2.97;;;2.13;;
15385;SDS011;7791;47.246;9.648;2023-07-31T10:22:46;7.28;;;2.40;;
15385;SDS011;7791;47.246;9.648;2023-07-31T10:31:06;2.40;;;1.90;;
15385;SDS011;7791;47.246;9.648;2023-07-31T10:34:00;4.18;;;1.80;;
15385;SDS011;7791;47.246;9.648;2023-07-31T10:36:45;3.72;;;1.80;;
15385;SDS011;7791;47.246;9.648;2023-07-31T10:50:58;4.15;;;2.10;;
15385;SDS011;7791;47.246;9.648;2023-07-31T10:53:49;3.20;;;1.85;;
15385;SDS011;7791;47.246;9.648;2023-07-31T10:56:39;3.92;;;2.10;;
15385;SDS011;7791;47.246;9.648;2023-07-31T10:59:15;4.90;;;1.92;;
15385;SDS011;7791;47.246;9.648;2023-07-31T11:02:24;3.88;;;2.20;;
15385;SDS011;7791;47.246;9.648;2023-07-31T11:05:20;3.05;;;1.73;;
15385;SDS011;7791;47.246;9.648;2023-07-31T11:11:24;2.50;;;1.77;;
15385;SDS011;7791;47.246;9.648;2023-07-31T11:13:59;2.42;;;1.65;;
15385;SDS011;7791;47.246;9.648;2023-07-31T11:16:52;7.90;;;2.58;;
15385;SDS011;7791;47.246;9.648;2023-07-31T11:19:26;4.15;;;1.98;;
15385;SDS011;7791;47.246;9.648;2023-07-31T11:24:59;3.20;;;1.90;;
15385;SDS011;7791;47.246;9.648;2023-07-31T11:27:44;2.95;;;1.77;;
15385;SDS011;7791;47.246;9.648;2023-07-31T11:30:24;3.47;;;1.67;;
15385;SDS011;7791;47.246;9.648;2023-07-31T11:32:56;4.72;;;1.90;;
15385;SDS011;7791;47.246;9.648;2023-07-31T11:35:46;1.77;;;1.60;;
15385;SDS011;7791;47.246;9.648;2023-07-31T11:38:33;2.15;;;1.70;;
15385;SDS011;7791;47.246;9.648;2023-07-31T11:41:13;2.42;;;1.67;;
15385;SDS011;7791;47.246;9.648;2023-07-31T11:44:15;2.35;;;1.80;;
15385;SDS011;7791;47.246;9.648;2023-07-31T11:46:53;4.57;;;1.95;;
15385;SDS011;7791;47.246;9.648;2023-07-31T11:49:33;2.65;;;1.85;;
15385;SDS011;7791;47.246;9.648;2023-07-31T11:52:38;3.10;;;2.00;;
15385;SDS011;7791;47.246;9.648;2023-07-31T11:55:15;2.25;;;1.88;;
15385;SDS011;7791;47.246;9.648;2023-07-31T11:58:00;3.72;;;1.88;;
15385;SDS011;7791;47.246;9.648;2023-07-31T12:00:34;3.53;;;1.80;;
15385;SDS011;7791;47.246;9.648;2023-07-31T12:03:17;3.13;;;2.10;;
15385;SDS011;7791;47.246;9.648;2023-07-31T12:05:50;4.30;;;2.15;;
15385;SDS011;7791;47.246;9.648;2023-07-31T12:08:37;3.35;;;1.98;;
15385;SDS011;7791;47.246;9.648;2023-07-31T12:11:26;9.23;;;2.63;;
15385;SDS011;7791;47.246;9.648;2023-07-31T12:14:19;2.08;;;1.60;;
15385;SDS011;7791;47.246;9.648;2023-07-31T12:16:55;11.10;;;3.35;;
15385;SDS011;7791;47.246;9.648;2023-07-31T12:19:38;5.28;;;2.40;;
15385;SDS011;7791;47.246;9.648;2023-07-31T12:22:27;7.55;;;1.92;;
15385;SDS011;7791;47.246;9.648;2023-07-31T12:25:08;3.58;;;1.70;;
15385;SDS011;7791;47.246;9.648;2023-07-31T12:31:20;2.47;;;1.50;;
15385;SDS011;7791;47.246;9.648;2023-07-31T12:33:52;3.03;;;1.80;;
15385;SDS011;7791;47.246;9.648;2023-07-31T12:36:25;4.25;;;1.50;;
15385;SDS011;7791;47.246;9.648;2023-07-31T12:39:07;2.55;;;1.60;;
15385;SDS011;7791;47.246;9.648;2023-07-31T12:41:50;2.40;;;1.67;;
15385;SDS011;7791;47.246;9.648;2023-07-31T12:47:23;4.00;;;2.15;;
15385;SDS011;7791;47.246;9.648;2023-07-31T12:50:09;2.95;;;1.80;;
15385;SDS011;7791;47.246;9.648;2023-07-31T12:52:54;3.30;;;2.05;;
15385;SDS011;7791;47.246;9.648;2023-07-31T12:55:32;2.60;;;1.50;;
15385;SDS011;7791;47.246;9.648;2023-07-31T12:58:29;2.70;;;1.65;;
15385;SDS011;7791;47.246;9.648;2023-07-31T13:01:15;4.78;;;2.10;;
15385;SDS011;7791;47.246;9.648;2023-07-31T13:04:11;3.10;;;1.80;;
15385;SDS011;7791;47.246;9.648;2023-07-31T13:07:02;2.80;;;1.80;;
15385;SDS011;7791;47.246;9.648;2023-07-31T13:09:55;6.18;;;2.10;;
15385;SDS011;7791;47.246;9.648;2023-07-31T13:12:40;3.63;;;1.88;;
15385;SDS011;7791;47.246;9.648;2023-07-31T13:15:23;2.92;;;1.80;;
15385;SDS011;7791;47.246;9.648;2023-07-31T13:17:56;2.45;;;1.70;;
15385;SDS011;7791;47.246;9.648;2023-07-31T13:26:25;2.47;;;1.52;;
15385;SDS011;7791;47.246;9.648;2023-07-31T13:29:14;4.07;;;1.92;;
15385;SDS011;7791;47.246;9.648;2023-07-31T13:31:58;2.35;;;1.85;;
15385;SDS011;7791;47.246;9.648;2023-07-31T13:34:41;2.92;;;1.80;;
15385;SDS011;7791;47.246;9.648;2023-07-31T13:37:21;2.50;;;1.77;;
15385;SDS011;7791;47.246;9.648;2023-07-31T13:39:59;2.38;;;1.60;;
15385;SDS011;7791;47.246;9.648;2023-07-31T13:42:32;2.72;;;1.60;;
15385;SDS011;7791;47.246;9.648;2023-07-31T13:45:08;3.25;;;1.60;;
15385;SDS011;7791;47.246;9.648;2023-07-31T13:47:44;3.35;;;1.80;;
15385;SDS011;7791;47.246;9.648;2023-07-31T13:50:30;2.88;;;1.60;;
15385;SDS011;7791;47.246;9.648;2023-07-31T13:53:13;1.98;;;1.65;;
15385;SDS011;7791;47.246;9.648;2023-07-31T13:55:49;2.80;;;1.88;;
15385;SDS011;7791;47.246;9.648;2023-07-31T13:58:26;2.42;;;1.83;;
15385;SDS011;7791;47.246;9.648;2023-07-31T14:01:01;2.83;;;1.50;;
15385;SDS011;7791;47.246;9.648;2023-07-31T14:06:33;2.03;;;1.80;;
15385;SDS011;7791;47.246;9.648;2023-07-31T14:11:53;2.40;;;1.70;;
15385;SDS011;7791;47.246;9.648;2023-07-31T14:14:18;3.03;;;1.85;;
15385;SDS011;7791;47.246;9.648;2023-07-31T14:16:49;4.90;;;2.10;;
15385;SDS011;7791;47.246;9.648;2023-07-31T14:19:38;2.58;;;1.52;;
15385;SDS011;7791;47.246;9.648;2023-07-31T14:27:56;6.03;;;1.98;;
15385;SDS011;7791;47.246;9.648;2023-07-31T14:30:25;3.25;;;1.90;;
15385;SDS011;7791;47.246;9.648;2023-07-31T14:33:00;1.85;;;1.50;;
15385;SDS011;7791;47.246;9.648;2023-07-31T14:35:33;2.33;;;1.90;;
15385;SDS011;7791;47.246;9.648;2023-07-31T14:38:05;2.47;;;1.90;;
15385;SDS011;7791;47.246;9.648;2023-07-31T14:40:47;3.10;;;1.58;;
15385;SDS011;7791;47.246;9.648;2023-07-31T14:43:23;3.25;;;1.73;;
15385;SDS011;7791;47.246;9.648;2023-07-31T14:46:01;3.63;;;2.17;;
15385;SDS011;7791;47.246;9.648;2023-07-31T14:48:40;4.28;;;1.90;;
15385;SDS011;7791;47.246;9.648;2023-07-31T14:51:35;3.22;;;1.92;;
15385;SDS011;7791;47.246;9.648;2023-07-31T14:54:16;2.17;;;1.75;;
15385;SDS011;7791;47.246;9.648;2023-07-31T14:56:52;3.88;;;1.90;;
15385;SDS011;7791;47.246;9.648;2023-07-31T14:59:43;3.33;;;1.95;;
15385;SDS011;7791;47.246;9.648;2023-07-31T15:02:32;3.63;;;1.92;;
15385;SDS011;7791;47.246;9.648;2023-07-31T15:05:24;3.80;;;2.00;;
15385;SDS011;7791;47.246;9.648;2023-07-31T15:07:56;4.30;;;1.80;;
15385;SDS011;7791;47.246;9.648;2023-07-31T15:10:38;3.20;;;1.80;;
15385;SDS011;7791;47.246;9.648;2023-07-31T15:13:33;4.22;;;1.90;;
15385;SDS011;7791;47.246;9.648;2023-07-31T15:16:17;4.95;;;2.20;;
15385;SDS011;7791;47.246;9.648;2023-07-31T15:18:58;3.33;;;1.90;;
15385;SDS011;7791;47.246;9.648;2023-07-31T15:21:30;4.55;;;2.08;;
15385;SDS011;7791;47.246;9.648;2023-07-31T15:24:18;5.07;;;2.00;;
15385;SDS011;7791;47.246;9.648;2023-07-31T15:27:06;2.80;;;1.88;;
15385;SDS011;7791;47.246;9.648;2023-07-31T15:29:42;2.97;;;1.90;;
15385;SDS011;7791;47.246;9.648;2023-07-31T15:32:23;4.05;;;1.98;;
15385;SDS011;7791;47.246;9.648;2023-07-31T15:35:05;3.35;;;1.73;;
15385;SDS011;7791;47.246;9.648;2023-07-31T15:37:54;2.35;;;1.90;;
15385;SDS011;7791;47.246;9.648;2023-07-31T15:40:54;5.90;;;2.28;;
15385;SDS011;7791;47.246;9.648;2023-07-31T15:43:40;3.70;;;1.98;;
15385;SDS011;7791;47.246;9.648;2023-07-31T15:46:22;3.13;;;1.92;;
15385;SDS011;7791;47.246;9.648;2023-07-31T15:48:58;4.32;;;1.85;;
15385;SDS011;7791;47.246;9.648;2023-07-31T15:51:32;3.75;;;1.70;;
15385;SDS011;7791;47.246;9.648;2023-07-31T15:54:12;3.05;;;1.90;;
15385;SDS011;7791;47.246;9.648;2023-07-31T15:56:50;3.80;;;1.77;;
15385;SDS011;7791;47.246;9.648;2023-07-31T15:59:24;3.40;;;1.95;;
15385;SDS011;7791;47.246;9.648;2023-07-31T16:02:00;2.95;;;1.75;;
15385;SDS011;7791;47.246;9.648;2023-07-31T16:04:43;3.45;;;2.13;;
15385;SDS011;7791;47.246;9.648;2023-07-31T16:10:02;4.10;;;2.15;;
15385;SDS011;7791;47.246;9.648;2023-07-31T16:12:42;3.58;;;1.80;;
15385;SDS011;7791;47.246;9.648;2023-07-31T16:15:42;4.43;;;1.88;;
15385;SDS011;7791;47.246;9.648;2023-07-31T16:21:20;5.40;;;2.15;;
15385;SDS011;7791;47.246;9.648;2023-07-31T16:24:03;2.53;;;1.58;;
15385;SDS011;7791;47.246;9.648;2023-07-31T16:26:44;2.75;;;2.00;;
15385;SDS011;7791;47.246;9.648;2023-07-31T16:29:27;2.92;;;2.00;;
15385;SDS011;7791;47.246;9.648;2023-07-31T16:32:02;3.75;;;1.90;;
15385;SDS011;7791;47.246;9.648;2023-07-31T16:37:38;2.88;;;2.15;;
15385;SDS011;7791;47.246;9.648;2023-07-31T16:43:23;1.95;;;1.63;;
15385;SDS011;7791;47.246;9.648;2023-07-31T16:45:58;4.25;;;1.88;;
15385;SDS011;7791;47.246;9.648;2023-07-31T16:48:49;3.00;;;1.70;;
15385;SDS011;7791;47.246;9.648;2023-07-31T16:51:26;3.65;;;2.08;;
15385;SDS011;7791;47.246;9.648;2023-07-31T16:54:12;4.15;;;1.80;;
15385;SDS011;7791;47.246;9.648;2023-07-31T16:56:46;3.85;;;1.73;;
15385;SDS011;7791;47.246;9.648;2023-07-31T16:59:33;3.88;;;2.10;;
15385;SDS011;7791;47.246;9.648;2023-07-31T17:04:54;5.38;;;2.60;;
15385;SDS011;7791;47.246;9.648;2023-07-31T17:07:49;4.18;;;1.98;;
15385;SDS011;7791;47.246;9.648;2023-07-31T17:10:31;3.97;;;2.10;;
15385;SDS011;7791;47.246;9.648;2023-07-31T17:13:16;3.63;;;1.60;;
15385;SDS011;7791;47.246;9.648;2023-07-31T17:15:53;5.50;;;2.63;;
15385;SDS011;7791;47.246;9.648;2023-07-31T17:21:32;5.18;;;1.85;;
15385;SDS011;7791;47.246;9.648;2023-07-31T17:24:06;2.45;;;1.83;;
15385;SDS011;7791;47.246;9.648;2023-07-31T17:26:59;3.15;;;1.88;;
15385;SDS011;7791;47.246;9.648;2023-07-31T17:29:47;2.65;;;1.73;;
15385;SDS011;7791;47.246;9.648;2023-07-31T17:32:19;4.70;;;2.10;;
15385;SDS011;7791;47.246;9.648;2023-07-31T17:35:04;3.67;;;1.92;;
15385;SDS011;7791;47.246;9.648;2023-07-31T17:40:57;3.63;;;1.98;;
15385;SDS011;7791;47.246;9.648;2023-07-31T17:46:12;5.38;;;1.95;;
15385;SDS011;7791;47.246;9.648;2023-07-31T17:52:04;2.78;;;2.13;;
15385;SDS011;7791;47.246;9.648;2023-07-31T17:54:52;5.88;;;2.28;;
15385;SDS011;7791;47.246;9.648;2023-07-31T17:57:24;5.07;;;2.28;;
15385;SDS011;7791;47.246;9.648;2023-07-31T18:00:05;3.97;;;1.83;;
15385;SDS011;7791;47.246;9.648;2023-07-31T18:02:39;3.20;;;1.83;;
15385;SDS011;7791;47.246;9.648;2023-07-31T18:05:13;2.67;;;1.95;;
15385;SDS011;7791;47.246;9.648;2023-07-31T18:07:51;4.22;;;2.20;;
15385;SDS011;7791;47.246;9.648;2023-07-31T18:10:31;4.60;;;2.25;;
15385;SDS011;7791;47.246;9.648;2023-07-31T18:15:52;4.88;;;2.45;;
15385;SDS011;7791;47.246;9.648;2023-07-31T18:19:40;7.10;;;2.63;;
15385;SDS011;7791;47.246;9.648;2023-07-31T18:21:15;4.53;;;2.30;;
15385;SDS011;7791;47.246;9.648;2023-07-31T18:26:36;4.40;;;2.37;;
15385;SDS011;7791;47.246;9.648;2023-07-31T18:32:14;10.00;;;3.20;;
15385;SDS011;7791;47.246;9.648;2023-07-31T18:35:08;9.73;;;2.80;;
15385;SDS011;7791;47.246;9.648;2023-07-31T18:37:39;4.53;;;2.30;;
15385;SDS011;7791;47.246;9.648;2023-07-31T18:40:20;5.10;;;2.70;;
15385;SDS011;7791;47.246;9.648;2023-07-31T18:43:05;4.40;;;2.23;;
15385;SDS011;7791;47.246;9.648;2023-07-31T18:46:12;4.57;;;2.40;;
15385;SDS011;7791;47.246;9.648;2023-07-31T19:00:14;6.27;;;2.40;;
15385;SDS011;7791;47.246;9.648;2023-07-31T19:03:04;6.33;;;3.70;;
15385;SDS011;7791;47.246;9.648;2023-07-31T19:05:59;7.60;;;3.23;;
15385;SDS011;7791;47.246;9.648;2023-07-31T19:11:39;4.13;;;2.40;;